Mooreton, North Dakota
Current Conditions -  °F | °C
As of 7:15 PM on Sunday 21 Dec 2014 (Local Time) from KBWP Reporting Station
Overcast Overcast  
Wind Chill: 21°   Ceiling: 300
Heat Index: 32°   Visibility: 4mi
Dew Point: 32°   Wind: 16mph
Humidity: 100%   Direction: 150°SSE
Pressure: 29.58"   Gusts: 21mph
Location:  46.27°N, 96.88°W
Report Text: KBWP 220115Z AUTO 15014G18KT 4SM OVC003 00/00 A2958 RMK AO1
Loading
Personal Weather Stations






























Interactive Weather Map New forecast layout! Learn more

10-Day Weather Forecast

Advertisements
Track Severe Weather on mobile